Latest Weather Observations for Georgetown Airport

IDQ60801

Issued at 10:05 am EST Tuesday 21 October 2014 (issued every 30 minutes, with the page automatically refreshed every 10 minutes)

About weather observations | Map of weather stations | Latest weather observations for QLD | Other Formats
Station Details ID: 030124 Name: GEORGETOWN AIRPORT Lat: -18.30 Lon: 143.53 Height: 301.77 m
Data from the previous 72 hours. | See also: Recent months at Georgetown Airport
Date/Time
EST
Temp
°C
App
Temp
°C
Dew
Point
Rel
Hum
%
Delta-T
°C
Wind Press
QNH
hPa
Press
MSL
hPa
Rain
since 9 am
mm
Dir
 
Spd
km/h
Gust
km/h
Spd
kts
Gust
kts
21/10:00am 27.3 24.0 11.7 37 9.1 E 20 33 11 18 1019.8 - 0.0
21/09:30am 26.2 22.6 11.9 41 8.3 E 22 33 12 18 1020.0 - 0.0
21/09:00am 25.4 22.9 12.3 44 7.6 E 17 28 9 15 1020.2 1018.3 0.0
21/08:30am 23.7 19.8 12.0 48 6.7 E 24 37 13 20 1020.3 - 0.0
21/08:00am 22.9 20.4 13.4 55 5.6 E 19 32 10 17 1020.3 - 0.0
21/07:30am 22.0 20.3 13.6 59 4.9 ESE 15 22 8 12 1020.0 - 0.0
21/07:00am 20.8 19.6 14.0 65 4.0 ESE 13 20 7 11 1019.7 - 0.0
21/06:30am 19.4 19.2 13.6 69 3.4 ESE 7 11 4 6 1019.5 - 0.0
21/06:00am 18.8 18.2 13.4 71 3.1 E 9 15 5 8 1018.9 1016.9 0.0
21/05:30am 18.9 18.5 13.1 69 3.3 E 7 11 4 6 1018.7 - 0.0
21/05:00am 19.3 18.4 12.6 65 3.8 ESE 9 15 5 8 1018.4 - 0.0
21/04:30am 19.6 17.4 12.1 62 4.2 ESE 15 22 8 12 1018.3 - 0.0
21/04:00am 20.2 17.9 11.9 59 4.7 ESE 15 24 8 13 1018.3 - 0.0
21/03:30am 20.6 18.1 12.3 59 4.7 E 17 22 9 12 1018.0 - 0.0
21/03:00am 20.7 17.7 12.1 58 4.9 E 19 28 10 15 1017.8 1015.9 0.0
21/02:30am 20.8 19.7 12.0 57 5.0 E 9 20 5 11 1018.0 - 0.0
21/02:00am 21.1 18.6 12.3 57 5.0 E 17 24 9 13 1018.0 - 0.0
21/01:30am 21.5 18.7 12.6 57 5.1 E 19 28 10 15 1018.3 - 0.0
21/01:00am 21.8 19.0 12.6 56 5.3 E 19 26 10 14 1018.7 - 0.0
21/12:30am 22.1 20.1 12.6 55 5.5 E 15 22 8 12 1019.1 - 0.0
21/12:00am 22.6 19.9 12.8 54 5.7 ENE 19 24 10 13 1019.3 1017.3 0.0
 
Date/Time
EST
Temp
°C
App
Temp
°C
Dew
Point
Rel
Hum
%
Delta-T
°C
Wind Press
QNH
hPa
Press
MSL
hPa
Rain
since 9 am
mm
Dir
 
Spd
km/h
Gust
km/h
Spd
kts
Gust
kts
20/11:30pm 23.0 19.5 13.5 55 5.6 ENE 24 35 13 19 1019.3 - 0.0
20/11:00pm 23.5 19.4 13.7 54 5.8 E 28 43 15 23 1019.1 - 0.0
20/10:30pm 24.4 19.8 13.6 51 6.4 E 30 46 16 25 1018.9 - 0.0
20/10:18pm 24.8 20.6 13.4 49 6.7 E 28 46 15 25 1018.6 - 0.0
20/10:00pm 25.3 20.5 12.9 46 7.3 E 30 39 16 21 1018.4 - 0.0
20/09:48pm 25.9 21.3 12.4 43 7.9 E 28 48 15 26 1018.1 - 0.0
20/09:30pm 26.4 21.9 11.3 39 8.7 ENE 26 39 14 21 1017.7 - 0.0
20/09:00pm 27.3 23.0 7.2 28 10.8 ENE 19 28 10 15 1017.2 1015.3 0.0
20/08:30pm 27.8 24.4 6.0 25 11.5 E 13 20 7 11 1016.7 - 0.0
20/08:00pm 28.5 24.9 6.6 25 11.8 E 15 24 8 13 1016.3 - 0.0
20/07:30pm 29.0 25.6 7.6 26 11.7 ESE 15 22 8 12 1016.0 - 0.0
20/07:00pm 29.2 26.6 7.7 26 11.8 E 11 19 6 10 1015.7 - 0.0
20/06:30pm 30.0 26.6 7.8 25 12.3 E 15 28 8 15 1015.3 - 0.0
20/06:00pm 31.0 27.7 8.1 24 12.8 E 15 22 8 12 1014.9 1012.9 0.0
20/05:30pm 31.6 27.5 7.9 23 13.2 E 19 30 10 16 1014.5 - 0.0
20/05:00pm 32.0 28.2 8.9 24 13.1 E 19 30 10 16 1014.2 - 0.0
20/04:30pm 32.2 28.8 9.1 24 13.2 ESE 17 33 9 18 1014.1 - 0.0
20/04:00pm 32.0 28.0 8.9 24 13.1 E 20 33 11 18 1014.1 - 0.0
20/03:30pm 32.1 27.5 9.6 25 12.9 E 24 37 13 20 1014.3 - 0.0
20/03:00pm 31.8 26.7 9.3 25 12.8 E 26 41 14 22 1014.8 1012.8 0.0
20/02:30pm 31.2 26.5 9.4 26 12.4 ESE 24 35 13 19 1015.2 - 0.0
20/02:00pm 31.6 27.8 9.8 26 12.5 E 20 30 11 16 1015.6 - 0.0
20/01:30pm 31.0 26.4 10.9 29 11.7 E 26 37 14 20 1016.2 - 0.0
20/01:00pm 30.9 27.0 10.8 29 11.7 ESE 22 39 12 21 1016.7 - 0.0
20/12:30pm 29.7 26.7 10.8 31 10.9 SE 17 33 9 18 1017.4 - 0.0
20/12:00pm 30.0 26.7 11.0 31 11.0 ESE 19 35 10 19 1018.1 1016.1 0.0
20/11:30am 29.4 25.8 10.5 31 10.9 E 20 35 11 19 1018.6 - 0.0
20/11:00am 28.7 25.2 10.8 33 10.3 E 20 35 11 19 1018.9 - 0.0
20/10:30am 28.6 25.3 11.6 34 9.9 E 20 33 11 18 1019.3 - 0.0
20/10:00am 27.6 23.8 11.2 36 9.5 E 22 35 12 19 1019.7 - 0.0
20/09:30am 27.7 23.8 10.9 35 9.7 E 22 30 12 16 1019.9 - 0.0
20/09:00am 26.2 22.4 11.2 39 8.6 ESE 22 37 12 20 1020.0 1018.0 0.0
20/08:30am 25.3 22.6 12.9 46 7.3 ESE 19 30 10 16 1020.0 - 0.0
20/08:00am 23.5 19.7 13.7 54 5.8 ESE 26 37 14 20 1019.8 - 0.0
20/07:30am 22.6 19.7 13.9 58 5.1 ESE 22 33 12 18 1019.9 - 0.0
20/07:00am 21.4 19.2 14.3 64 4.2 ESE 19 32 10 17 1019.6 - 0.0
20/06:30am 20.3 18.5 14.4 69 3.5 SE 17 30 9 16 1019.4 - 0.0
20/06:00am 19.7 18.2 14.1 70 3.3 ESE 15 22 8 12 1019.2 1017.2 0.0
20/05:30am 19.7 17.7 13.9 69 3.4 ESE 17 24 9 13 1019.1 - 0.0
20/05:00am 19.6 17.8 13.3 67 3.6 ESE 15 24 8 13 1018.8 - 0.0
20/04:30am 19.4 17.7 12.4 64 4.0 SE 13 19 7 10 1018.6 - 0.0
20/04:00am 19.6 18.2 12.1 62 4.2 SE 11 17 6 9 1018.3 - 0.0
20/03:30am 19.6 18.0 11.4 59 4.6 SE 11 13 6 7 1018.1 - 0.0
20/03:00am 20.1 18.4 11.3 57 4.9 SE 11 15 6 8 1018.1 1016.1 0.0
20/02:30am 20.8 19.2 11.4 55 5.3 ESE 11 17 6 9 1018.1 - 0.0
20/02:00am 21.2 19.2 11.5 54 5.5 ESE 13 20 7 11 1018.4 - 0.0
20/01:30am 21.6 18.4 11.3 52 5.8 E 19 28 10 15 1018.6 - 0.0
20/01:00am 21.7 19.1 12.0 54 5.5 ESE 17 24 9 13 1018.9 - 0.0
20/12:30am 22.2 20.1 12.5 54 5.6 E 15 20 8 11 1019.1 - 0.0
20/12:00am 22.7 19.9 12.6 53 5.8 E 19 28 10 15 1019.2 1017.2 0.0
 
Date/Time
EST
Temp
°C
App
Temp
°C
Dew
Point
Rel
Hum
%
Delta-T
°C
Wind Press
QNH
hPa
Press
MSL
hPa
Rain
since 9 am
mm
Dir
 
Spd
km/h
Gust
km/h
Spd
kts
Gust
kts
19/11:30pm 23.3 19.9 12.6 51 6.2 E 22 33 12 18 1019.2 - 0.0
19/11:00pm 23.8 20.9 12.8 50 6.4 E 20 33 11 18 1019.4 - 0.0
19/10:30pm 24.2 21.4 13.1 50 6.5 E 20 30 11 16 1019.5 - 0.0
19/10:00pm 24.8 21.4 12.4 46 7.2 ENE 22 33 12 18 1019.4 - 0.0
19/09:30pm 25.3 22.3 12.5 45 7.5 E 20 30 11 16 1019.2 - 0.0
19/09:00pm 26.0 21.8 12.5 43 7.9 ENE 26 35 14 19 1018.5 1016.5 0.0
19/08:30pm 27.0 22.4 11.1 37 9.1 E 26 43 14 23 1018.0 - 0.0
19/08:00pm 27.9 23.0 10.1 33 10.1 E 26 41 14 22 1017.2 - 0.0
19/07:30pm 28.6 24.2 10.3 32 10.5 E 24 41 13 22 1016.6 - 0.0
19/07:00pm 29.3 25.6 9.4 29 11.2 ESE 19 26 10 14 1016.0 - 0.0
19/06:30pm 30.2 26.4 9.1 27 11.9 E 19 28 10 15 1015.4 - 0.0
19/06:00pm 31.2 27.3 8.8 25 12.6 E 19 33 10 18 1014.9 1012.9 0.0
19/05:30pm 31.7 28.0 8.0 23 13.2 E 17 24 9 13 1014.5 - 0.0
19/05:00pm 32.2 28.5 7.8 22 13.6 E 17 30 9 16 1014.2 - 0.0
19/04:30pm 32.7 28.7 6.8 20 14.3 ESE 17 26 9 14 1014.1 - 0.0
19/04:00pm 32.7 27.9 7.5 21 14.0 ESE 22 33 12 18 1014.0 - 0.0
19/03:30pm 32.5 28.2 8.0 22 13.7 NE 20 30 11 16 1013.9 - 0.0
19/03:00pm 32.6 28.4 8.1 22 13.8 NE 20 33 11 18 1014.2 1012.3 0.0
19/02:30pm 31.9 27.7 7.5 22 13.5 ENE 19 30 10 16 1014.8 - 0.0
19/02:00pm 31.4 26.7 7.8 23 13.1 E 22 39 12 21 1015.2 - 0.0
19/01:30pm 31.5 27.2 7.9 23 13.2 ESE 20 32 11 17 1015.8 - 0.0
19/01:00pm 30.7 26.6 7.8 24 12.7 E 19 33 10 18 1016.5 - 0.0
19/12:30pm 30.8 26.5 7.9 24 12.7 ENE 20 30 11 16 1017.2 - 0.0
19/12:00pm 29.6 24.3 6.9 24 12.3 ESE 24 35 13 19 1018.1 1016.1 0.0
19/11:30am 29.1 23.9 7.1 25 12.0 E 24 37 13 20 1018.7 - 0.0
19/11:00am 28.5 22.5 7.1 26 11.6 E 28 44 15 24 1019.2 - 0.0
19/10:30am 27.1 21.2 7.5 29 10.6 E 28 41 15 22 1019.7 - 0.0
19/10:00am 26.5 20.2 7.5 30 10.3 ESE 30 44 16 24 1020.1 - 0.0
19/09:30am 26.3 21.1 7.4 30 10.2 ESE 24 39 13 21 1020.2 - 0.0
19/09:00am 25.7 20.1 8.7 34 9.3 E 28 39 15 21 1020.3 1018.4 0.0
19/08:30am 24.8 18.9 9.1 37 8.6 E 30 46 16 25 1020.3 - 0.0
19/08:06am 24.2 18.8 9.4 39 8.2 ESE 28 46 15 25 1020.2 - 0.0
19/08:00am 23.9 18.5 9.5 40 7.9 E 28 44 15 24 1020.1 - 0.0
19/07:30am 23.1 18.3 10.2 44 7.2 E 26 39 14 21 1019.8 - 0.0
19/07:00am 22.1 16.8 9.9 46 6.7 E 28 43 15 23 1019.3 - 0.0
19/06:34am 21.4 16.4 10.9 51 5.9 E 28 46 15 25 1019.0 - 0.0
19/06:30am 21.3 16.6 10.8 51 5.8 E 26 46 14 25 1019.0 - 0.0
19/06:00am 20.9 17.3 10.4 51 5.8 E 20 32 11 17 1018.7 1016.7 0.0
19/05:30am 20.9 16.5 10.4 51 5.8 E 24 35 13 19 1018.3 - 0.0
19/05:00am 21.0 17.7 10.8 52 5.7 E 19 30 10 16 1018.0 - 0.0
19/04:30am 21.0 17.5 10.2 50 5.9 E 19 32 10 17 1017.8 - 0.0
19/04:00am 21.3 17.6 9.5 47 6.4 E 19 37 10 20 1017.7 - 0.0
19/03:30am 21.4 18.4 9.3 46 6.6 E 15 24 8 13 1017.6 - 0.0
19/03:00am 21.7 17.5 8.2 42 7.2 E 20 33 11 18 1017.5 1015.6 0.0
19/02:30am 21.9 17.9 8.1 41 7.3 E 19 33 10 18 1017.5 - 0.0
19/02:00am 22.0 17.9 7.8 40 7.5 E 19 32 10 17 1017.6 - 0.0
19/01:30am 22.3 17.6 7.7 39 7.7 E 22 30 12 16 1017.8 - 0.0
19/01:00am 22.4 18.1 7.0 37 8.0 E 19 30 10 16 1018.1 - 0.0
19/12:30am 22.6 18.5 6.4 35 8.4 E 17 22 9 12 1018.2 - 0.0
19/12:00am 22.9 18.4 6.2 34 8.6 E 19 33 10 18 1018.3 1016.3 0.0
 
Date/Time
EST
Temp
°C
App
Temp
°C
Dew
Point
Rel
Hum
%
Delta-T
°C
Wind Press
QNH
hPa
Press
MSL
hPa
Rain
since 9 am
mm
Dir
 
Spd
km/h
Gust
km/h
Spd
kts
Gust
kts
18/11:30pm 23.4 18.8 6.7 34 8.7 E 20 32 11 17 1018.4 - 0.0
18/11:00pm 23.7 18.8 6.9 34 8.8 E 22 35 12 19 1018.4 - 0.0
18/10:30pm 24.2 19.4 7.4 34 8.9 E 22 39 12 21 1018.2 - 0.0
18/10:06pm 24.7 18.7 6.9 32 9.4 E 28 48 15 26 1018.1 - 0.0
18/10:00pm 24.8 18.7 6.5 31 9.6 E 28 39 15 21 1018.1 - 0.0
18/09:30pm 25.7 19.8 5.8 28 10.4 E 26 41 14 22 1017.5 - 0.0
18/09:00pm 26.8 21.6 5.7 26 11.0 E 22 37 12 20 1017.0 1015.0 0.0
18/08:30pm 28.6 23.1 4.2 21 12.6 E 22 39 12 21 1016.6 - 0.0
18/08:00pm 29.6 25.0 6.3 23 12.5 E 20 30 11 16 1016.1 - 0.0
18/07:30pm 30.1 26.6 5.4 21 13.1 E 13 24 7 13 1015.6 - 0.0
18/07:00pm 30.1 26.8 2.4 17 14.0 E 9 13 5 7 1015.3 - 0.0
18/06:30pm 31.4 27.6 1.7 15 14.9 E 11 20 6 11 1015.0 - 0.0
18/06:00pm 32.6 27.9 0.6 13 15.9 ESE 15 22 8 12 1014.5 1012.5 0.0
18/05:30pm 33.4 29.0 0.1 12 16.5 E 13 22 7 12 1014.0 - 0.0
18/05:00pm 34.1 29.4 0.7 12 16.8 SE 15 26 8 14 1013.6 - 0.0
18/04:30pm 34.0 29.5 -0.6 11 17.0 ESE 13 24 7 13 1013.4 - 0.0
18/04:00pm 34.4 29.1 -0.3 11 17.2 SSE 17 28 9 15 1013.4 - 0.0
18/03:30pm 34.0 29.1 -0.6 11 17.0 SSE 15 24 8 13 1013.5 - 0.0
18/03:00pm 34.2 29.1 0.8 12 16.8 E 17 32 9 17 1013.8 1011.8 0.0
18/02:30pm 33.4 27.4 1.3 13 16.2 ESE 22 30 12 16 1014.2 - 0.0
18/02:00pm 33.6 28.4 2.4 14 16.1 SSW 19 28 10 15 1014.7 - 0.0
18/01:30pm 33.4 29.3 2.3 14 16.0 ESE 13 26 7 14 1015.4 - 0.0
18/01:00pm 33.0 28.8 3.9 16 15.3 SE 15 26 8 14 1015.9 - 0.0
18/12:30pm 32.2 28.1 4.1 17 14.8 SSE 15 24 8 13 1016.6 - 0.0
18/12:00pm 32.2 27.8 4.9 18 14.5 SE 17 32 9 17 1017.2 1015.3 0.0
18/11:30am 31.7 28.0 8.0 23 13.2 E 17 26 9 14 1017.7 - 0.0
18/11:00am 30.1 25.8 7.9 25 12.3 E 20 33 11 18 1018.5 - 0.0
18/10:30am 29.5 25.0 8.5 27 11.7 E 22 39 12 21 1018.9 - 0.0

Other Formats:

Comma delimited format used in spreadsheet applications
http://www.bom.gov.au/fwo/IDQ60801/IDQ60801.94274.axf

JavaScript Object Notation format (JSON) in row-major order
http://www.bom.gov.au/fwo/IDQ60801/IDQ60801.94274.json